Time;durP1;ratioP1;P1;durP2;ratioP2;P2;SDS_P1;SDS_P2;PMS_P1;PMS_P2;Temp;Humidity;BMP_temperature;BMP_pressure;BME280_temperature;BME280_humidity;BME280_pressure;Samples;Min_cycle;Max_cycle;Signal;HPM_P1;HPM_P2
2023/07/08 00:00:09;;;;;;;8.60;5.05;;;;;;;;;;4985878;28;20077;-79
2023/07/08 00:02:35;;;;;;;11.13;4.85;;;;;;;;;;5019091;28;20038;-86
2023/07/08 00:05:01;;;;;;;7.07;4.68;;;;;;;;;;5001880;28;20057;-73
2023/07/08 00:07:27;;;;;;;8.98;5.07;;;;;;;;;;5002680;28;20094;-83
2023/07/08 00:09:54;;;;;;;9.20;6.00;;;;;;;;;;5019689;28;20038;-84
2023/07/08 00:12:20;;;;;;;14.77;5.32;;;;;;;;;;4991529;28;20049;-73
2023/07/08 00:14:47;;;;;;;6.80;4.90;;;;;;;;;;5003428;28;20053;-83
2023/07/08 00:17:14;;;;;;;11.68;5.05;;;;;;;;;;5004544;28;20037;-73
2023/07/08 00:19:43;;;;;;;6.32;4.80;;;;;;;;;;4990291;28;20045;-83
2023/07/08 00:22:13;;;;;;;8.05;5.32;;;;;;;;;;5001550;28;20048;-73
2023/07/08 00:24:40;;;;;;;10.10;5.60;;;;;;;;;;5019858;28;20132;-83
2023/07/08 00:27:08;;;;;;;6.32;4.75;;;;;;;;;;5001246;28;20479;-78
2023/07/08 00:29:34;;;;;;;8.27;5.25;;;;;;;;;;5002054;28;20084;-77
2023/07/08 00:32:00;;;;;;;7.35;5.20;;;;;;;;;;5002428;28;20144;-71
2023/07/08 00:34:26;;;;;;;7.68;4.85;;;;;;;;;;5020379;28;20382;-78
2023/07/08 00:36:52;;;;;;;7.82;5.38;;;;;;;;;;5020160;28;20076;-81
2023/07/08 00:39:18;;;;;;;7.78;5.22;;;;;;;;;;5019226;28;20095;-82
2023/07/08 00:41:44;;;;;;;8.75;5.50;;;;;;;;;;4999650;28;20421;-78
2023/07/08 00:44:11;;;;;;;8.75;5.10;;;;;;;;;;5011401;28;20049;-78
2023/07/08 00:46:57;;;;;;;6.72;5.40;;;;;;;;;;5002013;28;20642;-76
2023/07/08 00:49:27;;;;;;;13.35;5.13;;;;;;;;;;4994126;28;20141;-77
2023/07/08 00:51:53;;;;;;;8.10;5.57;;;;;;;;;;4998345;28;20831;-85
2023/07/08 00:54:19;;;;;;;11.20;5.80;;;;;;;;;;5004651;28;20037;-77
2023/07/08 00:56:45;;;;;;;8.95;5.57;;;;;;;;;;5006481;28;20052;-81
2023/07/08 00:59:19;;;;;;;11.13;5.85;;;;;;;;;;5006917;28;20037;-80
2023/07/08 01:01:45;;;;;;;9.30;5.30;;;;;;;;;;5004803;28;20054;-79
2023/07/08 01:04:19;;;;;;;7.85;5.38;;;;;;;;;;5010107;28;20150;-86
2023/07/08 01:06:46;;;;;;;11.02;5.85;;;;;;;;;;4998345;28;20054;-85
2023/07/08 01:09:13;;;;;;;8.60;5.63;;;;;;;;;;5001064;28;20049;-83
2023/07/08 01:11:40;;;;;;;8.18;5.60;;;;;;;;;;5002954;28;20045;-85
2023/07/08 01:14:07;;;;;;;8.45;5.45;;;;;;;;;;5006767;28;20092;-84
2023/07/08 01:16:33;;;;;;;8.18;5.90;;;;;;;;;;5023855;28;20042;-85
2023/07/08 01:19:03;;;;;;;8.95;5.90;;;;;;;;;;5021718;28;20463;-80
2023/07/08 01:21:34;;;;;;;9.73;5.50;;;;;;;;;;5021834;28;20163;-84
2023/07/08 01:24:01;;;;;;;7.90;5.82;;;;;;;;;;5011943;28;20116;-83
2023/07/08 01:26:27;;;;;;;9.05;6.05;;;;;;;;;;5018418;28;20107;-83
2023/07/08 01:28:55;;;;;;;8.68;5.57;;;;;;;;;;5024776;28;20045;-77
2023/07/08 01:31:21;;;;;;;8.10;5.57;;;;;;;;;;5005213;28;20069;-85
2023/07/08 01:33:48;;;;;;;10.65;6.20;;;;;;;;;;5000690;28;20050;-82
2023/07/08 01:36:13;;;;;;;8.10;5.43;;;;;;;;;;5001568;28;20069;-82
2023/07/08 01:38:40;;;;;;;8.35;5.70;;;;;;;;;;5022905;28;20045;-80
2023/07/08 01:41:11;;;;;;;7.80;5.50;;;;;;;;;;5001200;28;20733;-81
2023/07/08 01:43:37;;;;;;;8.43;6.07;;;;;;;;;;5018867;28;20041;-84
2023/07/08 01:46:03;;;;;;;8.90;5.82;;;;;;;;;;5022446;28;20390;-77
2023/07/08 01:48:34;;;;;;;9.43;6.25;;;;;;;;;;5022000;28;20071;-85
2023/07/08 01:51:04;;;;;;;11.50;6.63;;;;;;;;;;5009855;28;20041;-85
2023/07/08 01:53:35;;;;;;;7.55;5.32;;;;;;;;;;4987238;28;20041;-85
2023/07/08 01:56:01;;;;;;;9.93;6.18;;;;;;;;;;5005580;28;20376;-84
2023/07/08 01:58:27;;;;;;;8.80;6.40;;;;;;;;;;4989060;28;20132;-74
2023/07/08 02:00:54;;;;;;;10.45;6.10;;;;;;;;;;5005256;28;20042;-84
2023/07/08 02:03:20;;;;;;;10.23;5.97;;;;;;;;;;5004778;28;20041;-84
2023/07/08 02:05:46;;;;;;;10.50;6.30;;;;;;;;;;5003988;28;20123;-84
2023/07/08 02:08:12;;;;;;;7.93;6.53;;;;;;;;;;5023066;28;20041;-85
2023/07/08 02:10:42;;;;;;;10.80;6.72;;;;;;;;;;4987808;28;20045;-84
2023/07/08 02:13:08;;;;;;;8.15;5.90;;;;;;;;;;5023433;28;20045;-74
2023/07/08 02:15:34;;;;;;;8.48;6.10;;;;;;;;;;5020488;28;20095;-82
2023/07/08 02:18:00;;;;;;;8.00;6.60;;;;;;;;;;4988979;28;20129;-81
2023/07/08 02:20:26;;;;;;;7.80;6.55;;;;;;;;;;5013701;28;20045;-85
2023/07/08 02:22:53;;;;;;;10.40;6.57;;;;;;;;;;5021084;28;20042;-83
2023/07/08 02:25:20;;;;;;;8.05;6.57;;;;;;;;;;5001702;28;20053;-86
2023/07/08 02:27:46;;;;;;;8.40;6.63;;;;;;;;;;5002342;28;20152;-86
2023/07/08 02:30:12;;;;;;;8.23;6.40;;;;;;;;;;5006039;28;20049;-85
2023/07/08 02:32:38;;;;;;;9.60;6.35;;;;;;;;;;5000077;28;20049;-84
2023/07/08 02:35:08;;;;;;;9.07;6.68;;;;;;;;;;5000826;28;20053;-81
2023/07/08 02:37:34;;;;;;;8.75;6.40;;;;;;;;;;4986183;28;20041;-79
2023/07/08 02:40:02;;;;;;;9.50;6.60;;;;;;;;;;4997417;28;20041;-73
2023/07/08 02:42:31;;;;;;;12.60;6.90;;;;;;;;;;4999980;28;20091;-82
2023/07/08 02:44:57;;;;;;;8.77;6.80;;;;;;;;;;5001499;28;20049;-81
2023/07/08 02:47:23;;;;;;;10.40;6.85;;;;;;;;;;5017788;28;20057;-84
2023/07/08 02:49:50;;;;;;;9.45;6.70;;;;;;;;;;5021285;28;20055;-85
2023/07/08 02:52:16;;;;;;;10.68;6.63;;;;;;;;;;5022484;28;20833;-84
2023/07/08 02:54:42;;;;;;;13.55;7.43;;;;;;;;;;4998904;28;20037;-86
2023/07/08 02:57:08;;;;;;;11.90;7.25;;;;;;;;;;5001889;28;20837;-79
2023/07/08 02:59:34;;;;;;;12.77;7.35;;;;;;;;;;5016301;28;20128;-78
2023/07/08 03:02:00;;;;;;;16.35;7.00;;;;;;;;;;4986843;28;20076;-81
2023/07/08 03:04:26;;;;;;;12.38;7.50;;;;;;;;;;5003408;28;20125;-86
2023/07/08 03:06:52;;;;;;;12.38;6.93;;;;;;;;;;5017646;28;20626;-80
2023/07/08 03:09:18;;;;;;;11.00;7.85;;;;;;;;;;5004156;28;20049;-86
2023/07/08 03:11:44;;;;;;;10.75;7.53;;;;;;;;;;5020223;28;20111;-80
2023/07/08 03:14:10;;;;;;;10.70;7.78;;;;;;;;;;5021028;28;20052;-85
2023/07/08 03:16:36;;;;;;;12.15;7.88;;;;;;;;;;5000837;28;20531;-75
2023/07/08 03:19:04;;;;;;;11.00;7.50;;;;;;;;;;4998030;28;20146;-75
2023/07/08 03:21:31;;;;;;;12.27;7.97;;;;;;;;;;4985934;28;20037;-86
2023/07/08 03:23:58;;;;;;;10.05;7.57;;;;;;;;;;5020547;28;21111;-81
2023/07/08 03:26:24;;;;;;;12.10;7.80;;;;;;;;;;5003245;28;20080;-81
2023/07/08 03:28:50;;;;;;;10.60;7.45;;;;;;;;;;5020484;28;20033;-76
2023/07/08 03:31:16;;;;;;;10.88;7.47;;;;;;;;;;5021904;28;20045;-79
2023/07/08 03:33:42;;;;;;;11.15;7.72;;;;;;;;;;5000886;28;20556;-84
2023/07/08 03:36:12;;;;;;;9.98;7.55;;;;;;;;;;5002342;28;20037;-82
2023/07/08 03:38:38;;;;;;;8.48;7.00;;;;;;;;;;4997368;28;20053;-83
2023/07/08 03:41:04;;;;;;;10.90;7.53;;;;;;;;;;4993604;28;20046;-74
2023/07/08 03:43:30;;;;;;;9.43;7.60;;;;;;;;;;5000173;28;20493;-81
2023/07/08 03:45:56;;;;;;;11.73;8.00;;;;;;;;;;5003388;28;20049;-82
2023/07/08 03:48:22;;;;;;;10.15;7.93;;;;;;;;;;5003172;28;20030;-83
2023/07/08 03:50:48;;;;;;;10.57;7.53;;;;;;;;;;5001160;28;20088;-77
2023/07/08 03:53:14;;;;;;;9.23;7.53;;;;;;;;;;5000965;28;20044;-76
2023/07/08 03:55:40;;;;;;;12.23;7.68;;;;;;;;;;5015771;28;20045;-74
2023/07/08 03:58:06;;;;;;;9.25;7.57;;;;;;;;;;5002874;28;20045;-74
2023/07/08 04:00:32;;;;;;;12.50;7.97;;;;;;;;;;4987396;28;20073;-75
2023/07/08 04:02:58;;;;;;;11.20;8.55;;;;;;;;;;4996378;28;20044;-82
2023/07/08 04:05:24;;;;;;;11.38;7.65;;;;;;;;;;5020810;28;20064;-84
2023/07/08 04:07:50;;;;;;;12.25;8.30;;;;;;;;;;5018808;28;20075;-76
2023/07/08 04:10:16;;;;;;;9.73;8.40;;;;;;;;;;5020535;28;20065;-80
2023/07/08 04:12:42;;;;;;;9.57;7.68;;;;;;;;;;4986439;28;20461;-80
2023/07/08 04:15:09;;;;;;;10.20;8.23;;;;;;;;;;5003802;28;20049;-79
2023/07/08 04:17:46;;;;;;;14.77;8.32;;;;;;;;;;4985581;28;20052;-82
2023/07/08 04:20:14;;;;;;;10.63;7.50;;;;;;;;;;5004093;28;20051;-82
2023/07/08 04:22:40;;;;;;;12.00;7.85;;;;;;;;;;4998029;28;20067;-80
2023/07/08 04:25:06;;;;;;;12.85;8.23;;;;;;;;;;4999682;28;20550;-83
2023/07/08 04:27:32;;;;;;;11.40;7.93;;;;;;;;;;5017509;28;20517;-74
2023/07/08 04:29:58;;;;;;;10.35;7.95;;;;;;;;;;5001674;28;20049;-84
2023/07/08 04:32:27;;;;;;;10.02;8.18;;;;;;;;;;4993550;28;20680;-79
2023/07/08 04:34:53;;;;;;;10.38;8.05;;;;;;;;;;5016034;28;20788;-85
2023/07/08 04:37:19;;;;;;;11.88;8.00;;;;;;;;;;4998422;28;20042;-82
2023/07/08 04:39:46;;;;;;;12.75;7.85;;;;;;;;;;4985241;28;20386;-80
2023/07/08 04:42:15;;;;;;;11.18;7.63;;;;;;;;;;4995319;28;20094;-84
2023/07/08 04:44:42;;;;;;;10.90;7.93;;;;;;;;;;5001537;28;20046;-73
2023/07/08 04:47:08;;;;;;;9.98;7.28;;;;;;;;;;5014659;28;20049;-84
2023/07/08 04:49:35;;;;;;;9.68;7.63;;;;;;;;;;5003242;28;20455;-70
2023/07/08 04:52:01;;;;;;;10.88;7.78;;;;;;;;;;4999033;28;20095;-74
2023/07/08 04:54:27;;;;;;;12.23;8.32;;;;;;;;;;4998395;28;20842;-74
2023/07/08 04:56:53;;;;;;;12.10;7.35;;;;;;;;;;5004011;28;20056;-70
2023/07/08 04:59:21;;;;;;;10.88;7.60;;;;;;;;;;5013131;28;20042;-72
2023/07/08 05:01:48;;;;;;;12.60;8.20;;;;;;;;;;5021400;28;20049;-73
2023/07/08 05:04:15;;;;;;;10.75;7.63;;;;;;;;;;5004042;28;20401;-83
2023/07/08 05:06:41;;;;;;;11.70;8.00;;;;;;;;;;5001650;28;20580;-81
2023/07/08 05:09:07;;;;;;;11.18;7.60;;;;;;;;;;5010305;28;20095;-80
2023/07/08 05:11:33;;;;;;;12.20;8.18;;;;;;;;;;5001645;28;20052;-85
2023/07/08 05:13:59;;;;;;;10.50;7.75;;;;;;;;;;5008459;28;20120;-84
2023/07/08 05:16:25;;;;;;;11.02;7.55;;;;;;;;;;5010037;28;20563;-82
2023/07/08 05:18:51;;;;;;;11.73;7.55;;;;;;;;;;4995666;28;20041;-84
2023/07/08 05:21:18;;;;;;;11.05;8.00;;;;;;;;;;5019369;28;20080;-81
2023/07/08 05:23:45;;;;;;;10.40;7.28;;;;;;;;;;4997098;28;20603;-78
2023/07/08 05:26:11;;;;;;;11.30;7.30;;;;;;;;;;4995951;28;20069;-80
2023/07/08 05:28:37;;;;;;;11.38;7.47;;;;;;;;;;4997142;28;20078;-81
2023/07/08 05:31:03;;;;;;;9.20;7.20;;;;;;;;;;4998450;28;20878;-78
2023/07/08 05:33:30;;;;;;;9.73;7.45;;;;;;;;;;4995848;28;20058;-84
2023/07/08 05:35:56;;;;;;;11.30;7.40;;;;;;;;;;5002826;28;20048;-82
2023/07/08 05:38:22;;;;;;;10.73;7.88;;;;;;;;;;5001625;28;20067;-78
2023/07/08 05:40:49;;;;;;;11.82;7.32;;;;;;;;;;5012105;28;20108;-76
2023/07/08 05:43:16;;;;;;;11.50;7.10;;;;;;;;;;5001020;28;20077;-71
2023/07/08 05:45:45;;;;;;;10.50;6.78;;;;;;;;;;5003520;28;20046;-70
2023/07/08 05:48:11;;;;;;;10.40;7.38;;;;;;;;;;4994047;28;20068;-71
2023/07/08 05:50:37;;;;;;;10.43;6.97;;;;;;;;;;5005198;28;20056;-70
2023/07/08 05:53:03;;;;;;;9.70;6.88;;;;;;;;;;5002092;28;20592;-71
2023/07/08 05:55:29;;;;;;;9.13;6.85;;;;;;;;;;5001956;28;20053;-71
2023/07/08 05:57:55;;;;;;;12.18;6.80;;;;;;;;;;5003936;28;20109;-70
2023/07/08 06:00:22;;;;;;;11.90;7.07;;;;;;;;;;4998110;28;20867;-70
2023/07/08 06:02:48;;;;;;;10.80;6.60;;;;;;;;;;4999296;28;20038;-71
2023/07/08 06:05:14;;;;;;;12.77;6.43;;;;;;;;;;5009564;28;20041;-71
2023/07/08 06:07:40;;;;;;;9.48;6.63;;;;;;;;;;5003358;28;20077;-71
2023/07/08 06:10:07;;;;;;;9.15;6.25;;;;;;;;;;5012615;28;20623;-70
2023/07/08 06:12:33;;;;;;;9.75;6.10;;;;;;;;;;5016376;28;20061;-70
2023/07/08 06:14:59;;;;;;;8.90;5.90;;;;;;;;;;4998356;28;20049;-69
2023/07/08 06:17:25;;;;;;;7.70;5.82;;;;;;;;;;5001951;28;20081;-70
2023/07/08 06:19:51;;;;;;;11.10;5.60;;;;;;;;;;5003630;28;20080;-71
2023/07/08 06:22:17;;;;;;;8.80;5.60;;;;;;;;;;5000014;28;20057;-70
2023/07/08 06:24:43;;;;;;;9.30;5.50;;;;;;;;;;5019470;28;20069;-82
2023/07/08 06:27:09;;;;;;;7.50;4.93;;;;;;;;;;5026665;28;20092;-78
2023/07/08 06:29:35;;;;;;;8.73;5.30;;;;;;;;;;5004082;28;20667;-73
2023/07/08 06:32:02;;;;;;;7.22;5.30;;;;;;;;;;5000610;28;20058;-82
2023/07/08 06:34:28;;;;;;;10.23;5.10;;;;;;;;;;4997655;28;20378;-77
2023/07/08 06:36:54;;;;;;;6.82;4.70;;;;;;;;;;5009005;28;20351;-86
2023/07/08 06:39:20;;;;;;;14.75;5.20;;;;;;;;;;5012319;28;20100;-80
2023/07/08 06:41:46;;;;;;;8.70;5.13;;;;;;;;;;5006637;28;20053;-80
2023/07/08 06:44:12;;;;;;;7.55;4.68;;;;;;;;;;5019786;28;20127;-75
2023/07/08 06:46:38;;;;;;;9.40;4.95;;;;;;;;;;5003745;28;20045;-82
2023/07/08 06:49:08;;;;;;;9.98;5.13;;;;;;;;;;5001000;28;20063;-73
2023/07/08 06:51:34;;;;;;;8.25;4.20;;;;;;;;;;5009614;28;20583;-71
2023/07/08 06:54:04;;;;;;;9.98;5.32;;;;;;;;;;5028524;28;20052;-85
2023/07/08 06:56:30;;;;;;;6.40;4.32;;;;;;;;;;5018335;28;20045;-73
2023/07/08 06:58:57;;;;;;;6.47;4.68;;;;;;;;;;5002369;28;20559;-83
2023/07/08 07:01:23;;;;;;;9.43;5.35;;;;;;;;;;5011840;28;20131;-79
2023/07/08 07:03:49;;;;;;;6.93;4.45;;;;;;;;;;5011077;28;20235;-82
2023/07/08 07:06:15;;;;;;;10.98;4.18;;;;;;;;;;5004549;28;20049;-73
2023/07/08 07:08:41;;;;;;;9.52;4.10;;;;;;;;;;4998731;28;20160;-80
2023/07/08 07:11:07;;;;;;;7.68;4.30;;;;;;;;;;5000241;28;20041;-83
2023/07/08 07:13:33;;;;;;;5.55;4.25;;;;;;;;;;4999187;28;20069;-85
2023/07/08 07:16:02;;;;;;;7.40;3.78;;;;;;;;;;4998422;28;20049;-71
2023/07/08 07:18:28;;;;;;;6.85;4.53;;;;;;;;;;4997856;28;20045;-86
2023/07/08 07:20:58;;;;;;;6.72;4.00;;;;;;;;;;5016257;28;20041;-74
2023/07/08 07:23:24;;;;;;;9.03;4.40;;;;;;;;;;4997806;28;20049;-81
2023/07/08 07:25:50;;;;;;;6.35;4.22;;;;;;;;;;4999454;28;20050;-82
2023/07/08 07:28:17;;;;;;;8.18;4.20;;;;;;;;;;4998155;28;20080;-75
2023/07/08 07:30:43;;;;;;;9.40;4.45;;;;;;;;;;4999577;28;20043;-72
2023/07/08 07:33:10;;;;;;;8.02;4.05;;;;;;;;;;5018714;28;20068;-76
2023/07/08 07:35:36;;;;;;;11.68;4.15;;;;;;;;;;5018925;28;20100;-79
2023/07/08 07:38:02;;;;;;;11.05;4.40;;;;;;;;;;5019887;28;20041;-72
2023/07/08 07:40:27;;;;;;;13.82;3.72;;;;;;;;;;4999836;28;20053;-75
2023/07/08 07:42:53;;;;;;;7.07;3.72;;;;;;;;;;5004407;28;20445;-85
2023/07/08 07:45:22;;;;;;;8.35;3.45;;;;;;;;;;4985661;28;20042;-81
2023/07/08 07:47:48;;;;;;;14.27;4.22;;;;;;;;;;5018704;28;20060;-80
2023/07/08 07:50:14;;;;;;;8.73;3.72;;;;;;;;;;5018053;28;20409;-79
2023/07/08 07:52:41;;;;;;;7.95;3.60;;;;;;;;;;5019622;28;20045;-83
2023/07/08 07:55:07;;;;;;;23.45;4.28;;;;;;;;;;5021237;28;20033;-82
2023/07/08 07:57:36;;;;;;;8.48;3.75;;;;;;;;;;5021720;28;20125;-75
2023/07/08 08:00:03;;;;;;;8.43;3.42;;;;;;;;;;5003517;28;20126;-78
2023/07/08 08:02:29;;;;;;;6.90;3.60;;;;;;;;;;4984830;28;20360;-77
2023/07/08 08:04:55;;;;;;;6.95;3.55;;;;;;;;;;5018917;28;20045;-76
2023/07/08 08:07:24;;;;;;;11.50;3.28;;;;;;;;;;5033933;28;20048;-83
2023/07/08 08:09:50;;;;;;;10.00;3.30;;;;;;;;;;5007533;28;20049;-83
2023/07/08 08:12:16;;;;;;;7.00;3.47;;;;;;;;;;4999186;28;20037;-78
2023/07/08 08:14:42;;;;;;;9.25;3.42;;;;;;;;;;5015245;28;20128;-77
2023/07/08 08:17:08;;;;;;;10.40;3.78;;;;;;;;;;5018161;28;20037;-84
2023/07/08 08:19:34;;;;;;;6.20;3.20;;;;;;;;;;4997149;28;20046;-76
2023/07/08 08:22:00;;;;;;;9.45;3.33;;;;;;;;;;5018362;28;20509;-74
2023/07/08 08:24:29;;;;;;;8.20;3.10;;;;;;;;;;4996752;28;20129;-77
2023/07/08 08:26:55;;;;;;;8.52;3.28;;;;;;;;;;5014785;28;20057;-78
2023/07/08 08:29:21;;;;;;;5.72;3.22;;;;;;;;;;4995758;28;20076;-78
2023/07/08 08:31:47;;;;;;;6.32;3.17;;;;;;;;;;5013588;28;20049;-82
2023/07/08 08:34:13;;;;;;;3.88;2.92;;;;;;;;;;4996523;28;20042;-74
2023/07/08 08:36:39;;;;;;;4.90;3.13;;;;;;;;;;4998715;28;20042;-76
2023/07/08 08:39:05;;;;;;;7.72;3.10;;;;;;;;;;5014278;28;20823;-83
2023/07/08 08:41:32;;;;;;;7.78;3.25;;;;;;;;;;4980613;28;20500;-83
2023/07/08 08:44:00;;;;;;;5.50;3.08;;;;;;;;;;5014138;28;20049;-79
2023/07/08 08:46:26;;;;;;;5.82;2.97;;;;;;;;;;5011868;28;20667;-81
2023/07/08 08:49:00;;;;;;;6.47;3.13;;;;;;;;;;5014521;28;20064;-85
2023/07/08 08:51:27;;;;;;;7.03;3.08;;;;;;;;;;5025453;28;20057;-85
2023/07/08 08:53:54;;;;;;;7.78;3.17;;;;;;;;;;5003283;28;20108;-73
2023/07/08 08:56:21;;;;;;;5.72;3.20;;;;;;;;;;5012866;28;20050;-80
2023/07/08 08:59:06;;;;;;;5.57;3.17;;;;;;;;;;4995654;28;20061;-84
2023/07/08 09:01:32;;;;;;;7.45;3.03;;;;;;;;;;5015260;28;20068;-79
2023/07/08 09:04:01;;;;;;;9.40;2.83;;;;;;;;;;4995722;28;20038;-79
2023/07/08 09:06:28;;;;;;;6.55;2.90;;;;;;;;;;5016463;28;20049;-83
2023/07/08 09:08:56;;;;;;;8.48;3.10;;;;;;;;;;5004462;28;20056;-81
2023/07/08 09:11:26;;;;;;;4.00;2.95;;;;;;;;;;5013853;28;20506;-76
2023/07/08 09:13:52;;;;;;;8.02;3.50;;;;;;;;;;5013526;28;20042;-82
2023/07/08 09:16:25;;;;;;;8.40;3.13;;;;;;;;;;5002226;28;20041;-75
2023/07/08 09:18:51;;;;;;;4.00;3.00;;;;;;;;;;5005396;28;20049;-76
2023/07/08 09:21:20;;;;;;;5.30;3.00;;;;;;;;;;5002422;28;20042;-80
2023/07/08 09:23:48;;;;;;;7.70;3.22;;;;;;;;;;4994168;28;20058;-78
2023/07/08 09:26:16;;;;;;;8.30;3.25;;;;;;;;;;5006645;28;20054;-73
2023/07/08 09:28:42;;;;;;;;;;;;;;;;;;5005414;28;20064;-71
2023/07/08 09:31:09;;;;;;;9.43;3.30;;;;;;;;;;5005297;28;19925;-72
2023/07/08 09:33:38;;;;;;;7.28;3.60;;;;;;;;;;5002450;28;20053;-74
2023/07/08 09:36:16;;;;;;;5.13;3.15;;;;;;;;;;5021073;28;20048;-74
2023/07/08 09:38:42;;;;;;;8.27;3.40;;;;;;;;;;5006069;28;20045;-75
2023/07/08 09:41:08;;;;;;;6.35;3.15;;;;;;;;;;4997521;28;20038;-73
2023/07/08 09:43:38;;;;;;;4.75;3.10;;;;;;;;;;5003856;28;20057;-73
2023/07/08 09:46:04;;;;;;;6.65;3.22;;;;;;;;;;5023384;28;20104;-78
2023/07/08 09:48:34;;;;;;;7.57;3.47;;;;;;;;;;5038808;28;20132;-77
2023/07/08 09:51:00;;;;;;;5.85;3.00;;;;;;;;;;5014467;28;20040;-79
2023/07/08 09:53:26;;;;;;;7.50;3.17;;;;;;;;;;4995645;28;20723;-72
2023/07/08 09:55:53;;;;;;;6.75;3.10;;;;;;;;;;5006826;28;20468;-72
2023/07/08 09:58:22;;;;;;;5.93;3.30;;;;;;;;;;4999760;28;20037;-77
2023/07/08 10:00:51;;;;;;;4.90;3.00;;;;;;;;;;5023649;28;20149;-73
2023/07/08 10:03:22;;;;;;;10.85;3.03;;;;;;;;;;5004275;28;20075;-77
2023/07/08 10:05:49;;;;;;;9.50;3.53;;;;;;;;;;5002764;28;20041;-74
2023/07/08 10:08:19;;;;;;;7.15;3.33;;;;;;;;;;4986347;28;20068;-82
2023/07/08 10:10:47;;;;;;;6.88;3.40;;;;;;;;;;5022716;28;20072;-73
2023/07/08 10:13:16;;;;;;;5.47;3.00;;;;;;;;;;5009063;28;20132;-79
2023/07/08 10:15:48;;;;;;;5.97;3.58;;;;;;;;;;4985651;28;20481;-74
2023/07/08 10:18:17;;;;;;;5.30;3.13;;;;;;;;;;5005274;28;20054;-80
2023/07/08 10:20:53;;;;;;;4.97;2.90;;;;;;;;;;5012640;28;20063;-76
2023/07/08 10:23:25;;;;;;;4.90;2.90;;;;;;;;;;4999558;28;20063;-75
2023/07/08 10:25:58;;;;;;;7.07;2.92;;;;;;;;;;4979637;28;20707;-74
2023/07/08 10:28:31;;;;;;;4.70;3.83;;;;;;;;;;5000217;28;20100;-77
2023/07/08 10:31:23;;;;;;;6.40;3.03;;;;;;;;;;5002199;28;20045;-87
2023/07/08 10:33:57;;;;;;;6.43;3.45;;;;;;;;;;4994481;28;20513;-83
2023/07/08 10:36:30;;;;;;;5.78;3.30;;;;;;;;;;5023386;28;20494;-75
2023/07/08 10:39:10;;;;;;;6.35;3.30;;;;;;;;;;5020567;28;20052;-87
2023/07/08 10:41:54;;;;;;;7.82;3.35;;;;;;;;;;5015473;28;20806;-82
2023/07/08 10:44:39;;;;;;;7.38;2.97;;;;;;;;;;5014789;28;20057;-87
2023/07/08 10:47:05;;;;;;;5.03;2.80;;;;;;;;;;5002467;28;20565;-86
2023/07/08 10:49:48;;;;;;;4.20;2.88;;;;;;;;;;5014147;28;20049;-79
2023/07/08 10:52:31;;;;;;;6.38;3.15;;;;;;;;;;4986118;28;20041;-87
2023/07/08 10:55:11;;;;;;;6.07;3.17;;;;;;;;;;4999519;28;20499;-86
2023/07/08 10:57:37;;;;;;;6.32;3.05;;;;;;;;;;5019249;28;20049;-87
2023/07/08 11:00:12;;;;;;;6.00;3.03;;;;;;;;;;4995355;28;20114;-79
2023/07/08 11:02:38;;;;;;;7.68;3.20;;;;;;;;;;4998497;28;20450;-81
2023/07/08 11:05:07;;;;;;;7.68;3.17;;;;;;;;;;4983873;28;20084;-85
2023/07/08 11:07:48;;;;;;;6.10;3.28;;;;;;;;;;4999748;28;20056;-86
2023/07/08 11:10:22;;;;;;;9.70;3.55;;;;;;;;;;5001723;28;20424;-88
2023/07/08 11:12:51;;;;;;;6.43;3.10;;;;;;;;;;5019088;28;20033;-88
2023/07/08 11:15:23;;;;;;;8.60;3.10;;;;;;;;;;5003083;28;20041;-88
2023/07/08 11:18:10;;;;;;;7.45;3.25;;;;;;;;;;5002626;28;20044;-83
2023/07/08 11:20:39;;;;;;;10.30;2.80;;;;;;;;;;4989529;28;20423;-87
2023/07/08 11:23:17;;;;;;;7.20;3.13;;;;;;;;;;5016025;28;20493;-84
2023/07/08 11:25:44;;;;;;;4.45;3.10;;;;;;;;;;4990767;28;20057;-83
2023/07/08 11:28:14;;;;;;;5.22;3.20;;;;;;;;;;4991677;28;20049;-83
2023/07/08 11:30:42;;;;;;;5.20;2.95;;;;;;;;;;4988871;28;20052;-78
2023/07/08 11:33:10;;;;;;;6.35;3.40;;;;;;;;;;4991885;28;20053;-73
2023/07/08 11:36:03;;;;;;;5.72;3.60;;;;;;;;;;4994462;28;20077;-77
2023/07/08 11:38:29;;;;;;;9.88;3.10;;;;;;;;;;4990067;28;20054;-80
2023/07/08 11:41:00;;;;;;;6.57;3.40;;;;;;;;;;4997661;28;20044;-80
2023/07/08 11:43:43;;;;;;;6.28;3.00;;;;;;;;;;4992982;28;20045;-72
2023/07/08 11:46:13;;;;;;;5.55;3.10;;;;;;;;;;4993654;28;20116;-75
2023/07/08 11:48:41;;;;;;;5.82;2.70;;;;;;;;;;4996801;28;20084;-88
2023/07/08 11:51:07;;;;;;;5.20;3.15;;;;;;;;;;4997585;28;20049;-77
2023/07/08 11:53:37;;;;;;;4.28;3.10;;;;;;;;;;5016253;28;20602;-74
2023/07/08 11:56:16;;;;;;;6.90;3.58;;;;;;;;;;5013695;28;20076;-82
2023/07/08 11:58:48;;;;;;;10.50;3.53;;;;;;;;;;4996126;28;20176;-85
2023/07/08 12:01:14;;;;;;;4.88;3.45;;;;;;;;;;4995784;28;20410;-76
2023/07/08 12:04:01;;;;;;;5.80;3.20;;;;;;;;;;4994848;28;20095;-81
2023/07/08 12:06:27;;;;;;;7.13;3.33;;;;;;;;;;5016669;28;20401;-78
2023/07/08 12:08:58;;;;;;;4.32;3.13;;;;;;;;;;4999076;28;20053;-86
2023/07/08 12:11:28;;;;;;;5.88;3.28;;;;;;;;;;4997032;28;20135;-75
2023/07/08 12:13:59;;;;;;;6.90;3.33;;;;;;;;;;4994379;28;20049;-87
2023/07/08 12:16:25;;;;;;;10.65;3.40;;;;;;;;;;5010117;28;20084;-80
2023/07/08 12:18:53;;;;;;;5.93;3.30;;;;;;;;;;5009843;28;20049;-83
2023/07/08 12:21:19;;;;;;;9.95;3.30;;;;;;;;;;4994394;28;20087;-81
2023/07/08 12:23:46;;;;;;;6.63;3.42;;;;;;;;;;4977613;28;20097;-89
2023/07/08 12:26:12;;;;;;;9.60;3.13;;;;;;;;;;5008596;28;20148;-82
2023/07/08 12:28:39;;;;;;;7.35;3.33;;;;;;;;;;5009951;28;20099;-75
2023/07/08 12:31:15;;;;;;;6.72;3.38;;;;;;;;;;5010783;28;20099;-88
2023/07/08 12:33:41;;;;;;;5.63;3.50;;;;;;;;;;5008679;28;20076;-86
2023/07/08 12:36:10;;;;;;;5.00;3.05;;;;;;;;;;5009221;28;20091;-74
2023/07/08 12:38:40;;;;;;;5.47;3.58;;;;;;;;;;5011061;28;20049;-86
2023/07/08 12:41:09;;;;;;;7.72;3.55;;;;;;;;;;4991391;28;20220;-83
2023/07/08 12:43:35;;;;;;;4.07;3.45;;;;;;;;;;4999144;28;20851;-84
2023/07/08 12:46:03;;;;;;;4.95;3.60;;;;;;;;;;4996029;28;20037;-75
2023/07/08 12:48:36;;;;;;;5.78;3.47;;;;;;;;;;4990568;28;20049;-75
2023/07/08 12:51:13;;;;;;;8.15;3.53;;;;;;;;;;4999648;28;20156;-72
2023/07/08 12:53:53;;;;;;;9.63;3.90;;;;;;;;;;4998349;28;20053;-70
2023/07/08 12:57:15;;;;;;;11.15;4.55;;;;;;;;;;5016605;28;20044;-71
2023/07/08 12:59:43;;;;;;;5.38;3.80;;;;;;;;;;5014111;28;20037;-71
2023/07/08 13:02:19;;;;;;;6.85;3.60;;;;;;;;;;5001499;28;20092;-72
2023/07/08 13:04:57;;;;;;;6.03;3.38;;;;;;;;;;5016022;28;20053;-71
2023/07/08 13:07:29;;;;;;;;;;;;;;;;;;5016114;28;20539;-71
2023/07/08 13:09:56;;;;;;;5.25;3.72;;;;;;;;;;4999664;28;20075;-71
2023/07/08 13:12:24;;;;;;;11.52;4.13;;;;;;;;;;4997460;28;20057;-80
2023/07/08 13:14:51;;;;;;;8.38;3.80;;;;;;;;;;5017564;28;20449;-78
2023/07/08 13:17:17;;;;;;;9.63;3.95;;;;;;;;;;5001720;28;20075;-84
2023/07/08 13:19:44;;;;;;;5.22;3.60;;;;;;;;;;5015471;28;20087;-83
2023/07/08 13:22:16;;;;;;;6.68;3.97;;;;;;;;;;5020104;28;20029;-82
2023/07/08 13:24:42;;;;;;;6.88;4.53;;;;;;;;;;4994263;28;20904;-79
2023/07/08 13:30:53;;;;;;;6.40;4.00;;;;;;;;;;4883796;28;20052;-71
2023/07/08 13:36:43;;;;;;;7.30;4.75;;;;;;;;;;4962182;28;20072;-72
2023/07/08 13:39:15;;;;;;;6.40;4.93;;;;;;;;;;5012924;28;20041;-73
2023/07/08 13:41:45;;;;;;;6.80;4.65;;;;;;;;;;5011955;28;20093;-71
2023/07/08 13:44:11;;;;;;;8.63;4.95;;;;;;;;;;5013802;28;20501;-88
2023/07/08 13:47:04;;;;;;;;;;;;;;;;;;;;;
2023/07/08 13:49:58;;;;;;;9.82;4.80;;;;;;;;;;4984923;28;20513;-71
2023/07/08 13:52:30;;;;;;;7.25;4.80;;;;;;;;;;4993517;28;20037;-73
2023/07/08 13:55:19;;;;;;;8.63;4.88;;;;;;;;;;5010963;28;20045;-78
2023/07/08 13:58:01;;;;;;;8.15;4.82;;;;;;;;;;5009956;28;20056;-87
2023/07/08 14:00:30;;;;;;;8.45;4.47;;;;;;;;;;5010983;28;20107;-75
2023/07/08 14:02:59;;;;;;;11.45;4.97;;;;;;;;;;5013120;28;20049;-78
2023/07/08 14:05:31;;;;;;;8.18;5.03;;;;;;;;;;5013330;28;20053;-73
2023/07/08 14:08:01;;;;;;;14.27;5.13;;;;;;;;;;5012429;28;20187;-72
2023/07/08 14:10:27;;;;;;;9.05;4.70;;;;;;;;;;4995598;28;20641;-73
2023/07/08 14:12:53;;;;;;;11.07;4.97;;;;;;;;;;4993214;28;20525;-73
2023/07/08 14:15:23;;;;;;;7.78;4.82;;;;;;;;;;4995187;28;20041;-72
2023/07/08 14:17:53;;;;;;;8.77;4.85;;;;;;;;;;4999843;28;20061;-71
2023/07/08 14:20:19;;;;;;;8.20;4.68;;;;;;;;;;4998138;28;20033;-72
2023/07/08 14:22:48;;;;;;;8.68;5.30;;;;;;;;;;4995136;28;20128;-71
2023/07/08 14:25:20;;;;;;;7.82;5.20;;;;;;;;;;4973344;28;20054;-73
2023/07/08 14:27:50;;;;;;;10.57;5.05;;;;;;;;;;4956334;28;20056;-72
2023/07/08 14:30:17;;;;;;;10.20;4.57;;;;;;;;;;4958562;28;20048;-72
2023/07/08 14:32:43;;;;;;;6.95;5.10;;;;;;;;;;4957354;28;20042;-71
2023/07/08 14:35:12;;;;;;;7.00;4.90;;;;;;;;;;4972760;28;20050;-73
2023/07/08 14:37:38;;;;;;;7.75;5.47;;;;;;;;;;4989258;28;20298;-74
2023/07/08 14:40:18;;;;;;;14.93;5.03;;;;;;;;;;4971479;28;20054;-82
2023/07/08 14:42:44;;;;;;;7.35;4.72;;;;;;;;;;4975087;28;20066;-85
2023/07/08 14:45:11;;;;;;;6.43;4.90;;;;;;;;;;4969160;28;20409;-79
2023/07/08 14:47:37;;;;;;;8.88;5.03;;;;;;;;;;4971835;28;20584;-79
2023/07/08 14:50:13;;;;;;;7.45;5.22;;;;;;;;;;4976015;28;20042;-81
2023/07/08 14:52:39;;;;;;;5.78;5.00;;;;;;;;;;4985723;28;20050;-73
2023/07/08 14:55:05;;;;;;;6.88;4.88;;;;;;;;;;4973491;28;20046;-84